createdAt,value
2023-05-06T00:01:44.017Z,10.53
2023-05-06T00:04:12.388Z,10.47
2023-05-06T00:06:41.809Z,10.46
2023-05-06T00:09:10.672Z,10.45
2023-05-06T00:11:38.620Z,10.40
2023-05-06T00:14:06.831Z,10.40
2023-05-06T00:16:34.998Z,10.43
2023-05-06T00:19:03.160Z,10.50
2023-05-06T00:21:31.265Z,10.60
2023-05-06T00:23:59.438Z,10.61
2023-05-06T00:26:27.484Z,10.57
2023-05-06T00:28:56.385Z,10.53
2023-05-06T00:31:24.624Z,10.47
2023-05-06T00:33:52.677Z,10.45
2023-05-06T00:36:21.052Z,10.38
2023-05-06T00:38:49.208Z,10.36
2023-05-06T00:41:17.341Z,10.32
2023-05-06T00:43:45.690Z,10.29
2023-05-06T00:46:17.380Z,10.25
2023-05-06T00:48:45.685Z,10.18
2023-05-06T00:51:14.088Z,10.18
2023-05-06T00:53:42.481Z,10.09
2023-05-06T00:56:10.771Z,10.04
2023-05-06T00:58:39.351Z,10.05
2023-05-06T01:01:08.338Z,10.04
2023-05-06T01:03:36.655Z,9.95
2023-05-06T01:06:32.191Z,9.87
2023-05-06T01:09:32.089Z,9.84
2023-05-06T01:12:34.541Z,9.80
2023-05-06T01:15:08.838Z,9.81
2023-05-06T01:17:43.491Z,9.88
2023-05-06T01:20:12.827Z,9.99
2023-05-06T01:22:41.444Z,10.01
2023-05-06T01:25:19.913Z,10.02
2023-05-06T01:27:50.488Z,9.95
2023-05-06T01:30:20.278Z,9.91
2023-05-06T01:33:11.918Z,9.85
2023-05-06T01:36:00.769Z,9.85
2023-05-06T01:38:37.924Z,9.93
2023-05-06T01:41:06.395Z,9.98
2023-05-06T01:43:41.857Z,10.02
2023-05-06T01:46:15.956Z,10.04
2023-05-06T01:48:45.461Z,10.09
2023-05-06T01:51:13.500Z,10.15
2023-05-06T01:53:42.116Z,10.21
2023-05-06T01:56:10.578Z,10.21
2023-05-06T01:58:39.299Z,10.21
2023-05-06T02:01:07.634Z,10.19
2023-05-06T02:03:37.526Z,10.18
2023-05-06T02:06:06.115Z,10.12
2023-05-06T02:08:41.218Z,10.06
2023-05-06T02:11:12.441Z,10.01
2023-05-06T02:13:41.181Z,9.95
2023-05-06T02:16:10.717Z,9.88
2023-05-06T02:18:39.668Z,9.80
2023-05-06T02:21:08.369Z,9.78
2023-05-06T02:23:36.476Z,9.74
2023-05-06T02:26:04.688Z,9.71
2023-05-06T02:28:34.395Z,9.69
2023-05-06T02:31:02.483Z,9.64
2023-05-06T02:33:30.761Z,9.57
2023-05-06T02:35:58.931Z,9.58
2023-05-06T02:38:27.110Z,9.56
2023-05-06T02:40:55.339Z,9.60
2023-05-06T02:43:23.331Z,9.58
2023-05-06T02:45:51.670Z,9.60
2023-05-06T02:48:20.227Z,9.61
2023-05-06T02:50:48.592Z,9.67
2023-05-06T02:53:16.886Z,9.69
2023-05-06T02:55:45.661Z,9.73
2023-05-06T02:58:13.868Z,9.81
2023-05-06T03:00:42.003Z,9.85
2023-05-06T03:03:10.157Z,9.93
2023-05-06T03:05:38.547Z,10.01
2023-05-06T03:08:06.963Z,10.05
2023-05-06T03:10:36.236Z,10.13
2023-05-06T03:13:04.473Z,10.15
2023-05-06T03:15:32.854Z,10.15
2023-05-06T03:18:01.062Z,10.16
2023-05-06T03:20:31.295Z,10.16
2023-05-06T03:23:01.596Z,10.15
2023-05-06T03:25:37.234Z,10.12
2023-05-06T03:28:05.945Z,10.08
2023-05-06T03:30:35.574Z,10.04
2023-05-06T03:33:06.967Z,10.01
2023-05-06T03:35:35.530Z,9.98
2023-05-06T03:38:03.938Z,9.88
2023-05-06T03:40:42.123Z,9.83
2023-05-06T03:43:10.562Z,9.83
2023-05-06T03:45:43.185Z,9.81
2023-05-06T03:48:11.661Z,9.85
2023-05-06T03:50:43.773Z,9.84
2023-05-06T03:53:13.562Z,9.85
2023-05-06T03:55:48.982Z,9.88
2023-05-06T03:58:17.896Z,9.90
2023-05-06T04:00:47.423Z,9.91
2023-05-06T04:03:15.846Z,9.90
2023-05-06T04:05:50.987Z,9.93
2023-05-06T04:08:22.986Z,9.93
2023-05-06T04:10:51.080Z,9.90
2023-05-06T04:13:27.593Z,9.88
2023-05-06T04:15:58.414Z,9.93
2023-05-06T04:18:32.995Z,9.93
2023-05-06T04:21:05.604Z,9.95
2023-05-06T04:23:39.282Z,9.99
2023-05-06T04:26:08.664Z,9.98
2023-05-06T04:28:42.002Z,9.95
2023-05-06T04:31:16.768Z,9.98
2023-05-06T04:33:47.970Z,9.98
2023-05-06T04:36:18.993Z,9.94
2023-05-06T04:38:59.498Z,10.01
2023-05-06T04:44:19.589Z,10.02
2023-05-06T04:46:55.128Z,10.13
2023-05-06T04:49:23.481Z,10.19
2023-05-06T04:51:52.406Z,10.21
2023-05-06T04:54:20.578Z,10.22
2023-05-06T04:56:48.587Z,10.23
2023-05-06T04:59:19.344Z,10.23
2023-05-06T05:01:47.567Z,10.26
2023-05-06T05:04:15.711Z,10.32
2023-05-06T05:06:43.988Z,10.36
2023-05-06T05:09:13.268Z,10.40
2023-05-06T05:11:44.212Z,10.42
2023-05-06T05:14:14.422Z,10.47
2023-05-06T05:16:42.593Z,10.49
2023-05-06T05:19:10.909Z,10.42
2023-05-06T05:21:45.512Z,10.45
2023-05-06T05:24:16.797Z,10.43
2023-05-06T05:26:49.495Z,10.45
2023-05-06T05:29:18.812Z,10.47
2023-05-06T05:31:53.970Z,10.52
2023-05-06T05:34:22.243Z,10.64
2023-05-06T05:36:51.141Z,10.59
2023-05-06T05:39:19.989Z,10.66
2023-05-06T05:41:49.530Z,10.68
2023-05-06T05:44:17.936Z,10.67
2023-05-06T05:46:46.107Z,10.75
2023-05-06T05:49:17.531Z,10.81
2023-05-06T05:51:45.613Z,11.02
2023-05-06T05:54:16.918Z,11.21
2023-05-06T05:56:44.976Z,11.23
2023-05-06T05:59:15.446Z,11.25
2023-05-06T06:01:45.815Z,11.29
2023-05-06T06:04:15.009Z,11.40
2023-05-06T06:06:43.566Z,11.49
2023-05-06T06:09:12.230Z,11.57
2023-05-06T06:11:41.451Z,11.70
2023-05-06T06:14:10.696Z,11.78
2023-05-06T06:16:39.462Z,11.97
2023-05-06T06:19:07.508Z,11.97
2023-05-06T06:21:36.025Z,11.95
2023-05-06T06:24:06.229Z,12.19
2023-05-06T06:26:34.992Z,12.35
2023-05-06T06:29:03.489Z,12.57
2023-05-06T06:31:34.455Z,12.74
2023-05-06T06:34:18.050Z,12.94
2023-05-06T06:36:46.312Z,13.43
2023-05-06T06:39:15.001Z,14.12
2023-05-06T06:41:43.627Z,15.22
2023-05-06T06:44:13.406Z,16.39
2023-05-06T06:46:47.821Z,17.12
2023-05-06T06:49:17.981Z,17.39
2023-05-06T06:51:46.242Z,17.69
2023-05-06T06:54:20.685Z,17.22
2023-05-06T06:56:48.803Z,17.69
2023-05-06T06:59:20.285Z,17.84
2023-05-06T07:04:50.028Z,16.63
2023-05-06T07:07:20.082Z,16.42
2023-05-06T07:09:48.332Z,16.44
2023-05-06T07:12:16.427Z,16.63
2023-05-06T07:14:44.415Z,17.07
2023-05-06T07:17:12.889Z,16.88
2023-05-06T07:19:41.249Z,17.55
2023-05-06T07:22:09.947Z,17.84
2023-05-06T07:24:38.154Z,17.56
2023-05-06T07:27:06.023Z,17.31
2023-05-06T07:29:36.631Z,17.27
2023-05-06T07:32:04.918Z,17.40
2023-05-06T07:34:36.499Z,18.19
2023-05-06T07:37:08.333Z,18.25
2023-05-06T07:39:36.714Z,18.07
2023-05-06T07:42:05.008Z,18.37
2023-05-06T07:44:33.198Z,18.22
2023-05-06T07:47:01.531Z,18.01
2023-05-06T07:49:31.478Z,18.18
2023-05-06T07:52:02.522Z,18.31
2023-05-06T07:54:34.310Z,18.08
2023-05-06T07:57:09.082Z,18.21
2023-05-06T07:59:41.312Z,18.37
2023-05-06T08:02:17.536Z,18.51
2023-05-06T08:04:47.977Z,18.24
2023-05-06T08:07:23.782Z,18.11
2023-05-06T08:10:02.402Z,17.91
2023-05-06T08:12:30.635Z,17.50
2023-05-06T08:15:02.998Z,17.45
2023-05-06T08:17:34.108Z,17.34
2023-05-06T08:20:02.335Z,17.48
2023-05-06T08:22:30.725Z,17.56
2023-05-06T08:24:59.031Z,17.79
2023-05-06T08:27:36.184Z,18.32
2023-05-06T08:30:04.765Z,18.72
2023-05-06T08:32:33.135Z,18.89
2023-05-06T08:35:05.495Z,18.90
2023-05-06T08:37:34.345Z,18.77
2023-05-06T08:40:05.714Z,18.79
2023-05-06T08:42:36.826Z,18.89
2023-05-06T08:45:05.787Z,18.94
2023-05-06T08:47:34.198Z,19.18
2023-05-06T08:50:02.563Z,19.21
2023-05-06T08:52:31.609Z,18.65
2023-05-06T08:55:04.316Z,18.49
2023-05-06T08:57:33.669Z,18.69
2023-05-06T09:00:09.672Z,18.83
2023-05-06T09:02:43.301Z,19.14
2023-05-06T09:05:16.339Z,19.51
2023-05-06T09:07:45.265Z,19.77
2023-05-06T09:12:58.579Z,19.56
2023-05-06T09:15:49.005Z,19.91
2023-05-06T09:18:18.341Z,19.87
2023-05-06T09:20:48.668Z,20.13
2023-05-06T09:23:18.317Z,20.00
2023-05-06T09:25:51.395Z,20.18
2023-05-06T09:28:19.531Z,19.98
2023-05-06T09:30:51.088Z,19.90
2023-05-06T09:33:19.192Z,19.91
2023-05-06T09:35:48.590Z,19.80
2023-05-06T09:38:16.972Z,19.74
2023-05-06T09:40:45.059Z,19.72
2023-05-06T09:43:16.750Z,19.69
2023-05-06T09:45:46.376Z,19.89
2023-05-06T09:48:16.355Z,20.11
2023-05-06T09:50:48.326Z,20.08
2023-05-06T09:53:20.435Z,19.90
2023-05-06T09:55:49.621Z,20.21
2023-05-06T09:58:18.181Z,20.57
2023-05-06T10:00:46.935Z,20.86
2023-05-06T10:03:16.573Z,20.59
2023-05-06T10:05:44.774Z,20.66
2023-05-06T10:08:18.748Z,20.69
2023-05-06T10:10:49.452Z,20.75
2023-05-06T10:13:19.719Z,20.80
2023-05-06T10:15:49.790Z,20.82
2023-05-06T10:18:21.051Z,20.87
2023-05-06T10:20:57.724Z,20.93
2023-05-06T10:23:42.754Z,20.91
2023-05-06T10:26:16.934Z,20.86
2023-05-06T10:28:52.828Z,20.44
2023-05-06T10:31:27.940Z,20.24
2023-05-06T10:34:05.847Z,20.57
2023-05-06T10:36:36.718Z,21.00
2023-05-06T10:39:07.423Z,21.12
2023-05-06T10:41:37.460Z,20.91
2023-05-06T10:44:07.138Z,21.14
2023-05-06T10:47:03.176Z,21.44
2023-05-06T10:49:31.474Z,21.44
2023-05-06T10:52:12.863Z,21.11
2023-05-06T10:54:54.961Z,21.10
2023-05-06T10:57:49.637Z,21.42
2023-05-06T11:03:10.637Z,21.42
2023-05-06T11:05:53.015Z,21.45
2023-05-06T11:08:27.896Z,21.10
2023-05-06T11:10:56.509Z,20.57
2023-05-06T11:13:36.331Z,20.27
2023-05-06T11:16:05.231Z,20.37
2023-05-06T11:18:39.488Z,20.91
2023-05-06T11:21:13.482Z,21.17
2023-05-06T11:23:59.656Z,21.38
2023-05-06T11:26:28.084Z,21.12
2023-05-06T11:29:02.043Z,21.15
2023-05-06T11:31:39.229Z,20.96
2023-05-06T11:34:13.199Z,21.03
2023-05-06T11:36:49.904Z,20.83
2023-05-06T11:39:18.001Z,21.24
2023-05-06T11:41:47.164Z,21.44
2023-05-06T11:44:29.767Z,21.32
2023-05-06T11:47:10.951Z,20.93
2023-05-06T11:49:43.488Z,20.73
2023-05-06T11:52:13.358Z,20.82
2023-05-06T11:54:42.984Z,20.84
2023-05-06T11:57:13.785Z,21.12
2023-05-06T11:59:56.194Z,21.24
2023-05-06T12:02:24.865Z,21.20
2023-05-06T12:04:54.704Z,21.25
2023-05-06T12:07:23.626Z,21.44
2023-05-06T12:09:57.516Z,21.55
2023-05-06T12:12:27.740Z,21.79
2023-05-06T12:15:00.249Z,21.72
2023-05-06T12:17:31.672Z,21.97
2023-05-06T12:20:16.340Z,22.13
2023-05-06T12:22:58.710Z,21.83
2023-05-06T12:25:35.025Z,21.75
2023-05-06T12:28:27.778Z,21.76
2023-05-06T12:31:08.065Z,21.93
2023-05-06T12:33:49.485Z,22.17
2023-05-06T12:36:23.206Z,22.59
2023-05-06T12:38:53.400Z,22.88
2023-05-06T12:41:22.717Z,22.68
2023-05-06T12:43:57.651Z,22.61
2023-05-06T12:46:26.976Z,22.96
2023-05-06T12:49:06.416Z,23.16
2023-05-06T12:51:50.942Z,22.40
2023-05-06T12:54:56.537Z,21.93
2023-05-06T12:57:57.865Z,21.73
2023-05-06T13:00:45.351Z,21.67
2023-05-06T13:07:02.920Z,22.03
2023-05-06T13:09:43.975Z,22.24
2023-05-06T13:12:33.325Z,21.89
2023-05-06T13:15:16.930Z,21.89
2023-05-06T13:18:01.010Z,22.17
2023-05-06T13:20:29.822Z,22.37
2023-05-06T13:23:00.462Z,22.21
2023-05-06T13:25:51.094Z,22.25
2023-05-06T13:28:39.508Z,22.01
2023-05-06T13:31:54.989Z,22.10
2023-05-06T13:34:23.464Z,21.92
2023-05-06T13:36:52.058Z,21.72
2023-05-06T13:39:20.946Z,21.88
2023-05-06T13:41:50.223Z,21.94
2023-05-06T13:44:22.172Z,21.79
2023-05-06T13:46:50.791Z,21.73
2023-05-06T13:49:23.076Z,21.65
2023-05-06T13:51:51.633Z,21.71
2023-05-06T13:54:19.835Z,21.96
2023-05-06T13:56:51.462Z,22.01
2023-05-06T13:59:19.570Z,22.08
2023-05-06T14:01:49.736Z,22.13
2023-05-06T14:04:17.724Z,22.04
2023-05-06T14:06:45.966Z,22.10
2023-05-06T14:09:14.830Z,22.17
2023-05-06T14:11:42.797Z,21.99
2023-05-06T14:14:11.047Z,22.03
2023-05-06T14:16:39.488Z,22.01
2023-05-06T14:19:07.714Z,21.88
2023-05-06T14:21:35.773Z,21.67
2023-05-06T14:24:06.131Z,21.51
2023-05-06T14:26:35.604Z,21.38
2023-05-06T14:29:03.864Z,21.23
2023-05-06T14:31:33.947Z,21.11
2023-05-06T14:34:03.083Z,21.20
2023-05-06T14:36:31.526Z,21.21
2023-05-06T14:39:00.567Z,21.15
2023-05-06T14:41:35.872Z,21.23
2023-05-06T14:44:04.031Z,21.24
2023-05-06T14:46:32.668Z,21.34
2023-05-06T14:49:01.025Z,21.32
2023-05-06T14:51:29.519Z,21.42
2023-05-06T14:53:57.342Z,21.42
2023-05-06T14:56:28.567Z,21.28
2023-05-06T14:58:56.834Z,21.35
2023-05-06T15:01:24.856Z,21.35
2023-05-06T15:03:53.286Z,21.21
2023-05-06T15:06:21.330Z,21.25
2023-05-06T15:08:49.172Z,21.15
2023-05-06T15:11:17.508Z,21.23
2023-05-06T15:13:45.772Z,21.32
2023-05-06T15:16:13.895Z,21.39
2023-05-06T15:18:45.597Z,21.44
2023-05-06T15:21:14.182Z,21.42
2023-05-06T15:23:42.602Z,21.35
2023-05-06T15:26:10.811Z,21.44
2023-05-06T15:28:38.822Z,21.45
2023-05-06T15:31:10.037Z,21.42
2023-05-06T15:33:38.158Z,21.27
2023-05-06T15:36:06.865Z,21.17
2023-05-06T15:38:53.537Z,21.15
2023-05-06T15:41:24.882Z,21.06
2023-05-06T15:43:58.176Z,20.97
2023-05-06T15:46:27.588Z,20.93
2023-05-06T15:49:15.746Z,20.90
2023-05-06T15:51:44.142Z,20.77
2023-05-06T15:54:13.175Z,20.73
2023-05-06T15:56:45.544Z,20.73
2023-05-06T15:59:16.784Z,20.66
2023-05-06T16:04:17.304Z,20.63
2023-05-06T16:06:45.576Z,20.57
2023-05-06T16:09:13.701Z,20.57
2023-05-06T16:11:41.614Z,20.53
2023-05-06T16:14:09.666Z,20.45
2023-05-06T16:16:38.067Z,20.41
2023-05-06T16:19:07.695Z,20.46
2023-05-06T16:21:35.647Z,20.39
2023-05-06T16:24:03.683Z,20.41
2023-05-06T16:26:31.530Z,20.31
2023-05-06T16:29:01.431Z,20.27
2023-05-06T16:31:29.489Z,20.17
2023-05-06T16:33:57.376Z,20.10
2023-05-06T16:36:25.578Z,20.04
2023-05-06T16:38:53.345Z,19.97
2023-05-06T16:41:21.533Z,19.67
2023-05-06T16:43:49.712Z,19.12
2023-05-06T16:46:17.693Z,18.79
2023-05-06T16:48:45.698Z,18.42
2023-05-06T16:51:17.842Z,17.90
2023-05-06T16:53:45.781Z,17.35
2023-05-06T16:56:14.085Z,17.10
2023-05-06T16:58:42.920Z,16.83
2023-05-06T17:01:11.828Z,16.60
2023-05-06T17:03:40.502Z,16.42
2023-05-06T17:06:08.902Z,16.28
2023-05-06T17:08:37.530Z,16.08
2023-05-06T17:11:08.641Z,15.83
2023-05-06T17:13:36.654Z,15.82
2023-05-06T17:16:04.734Z,15.82
2023-05-06T17:18:32.664Z,15.84
2023-05-06T17:21:01.406Z,15.71
2023-05-06T17:23:29.419Z,15.70
2023-05-06T17:25:58.863Z,15.66
2023-05-06T17:28:30.016Z,15.67
2023-05-06T17:30:59.164Z,15.76
2023-05-06T17:33:27.313Z,15.86
2023-05-06T17:35:55.842Z,15.89
2023-05-06T17:38:23.809Z,15.89
2023-05-06T17:40:51.938Z,15.93
2023-05-06T17:43:19.896Z,15.94
2023-05-06T17:45:48.082Z,15.96
2023-05-06T17:48:16.227Z,15.96
2023-05-06T17:50:44.247Z,15.96
2023-05-06T17:53:12.498Z,15.97
2023-05-06T17:55:41.494Z,15.98
2023-05-06T17:58:09.408Z,15.97
2023-05-06T18:00:37.965Z,15.96
2023-05-06T18:03:06.270Z,15.98
2023-05-06T18:05:34.390Z,15.98
2023-05-06T18:08:02.561Z,15.98
2023-05-06T18:10:31.293Z,15.97
2023-05-06T18:12:59.339Z,15.93
2023-05-06T18:15:27.506Z,15.89
2023-05-06T18:17:55.597Z,15.80
2023-05-06T18:20:23.814Z,15.76
2023-05-06T18:22:51.813Z,15.70
2023-05-06T18:25:20.053Z,15.69
2023-05-06T18:27:48.389Z,15.65
2023-05-06T18:30:19.557Z,15.62
2023-05-06T18:32:50.998Z,15.65
2023-05-06T18:35:19.948Z,15.60
2023-05-06T18:37:47.968Z,15.52
2023-05-06T18:40:16.616Z,15.52
2023-05-06T18:42:47.474Z,15.53
2023-05-06T18:45:15.851Z,15.57
2023-05-06T18:47:44.081Z,15.55
2023-05-06T18:50:16.287Z,15.49
2023-05-06T18:52:44.349Z,15.40
2023-05-06T18:55:12.439Z,15.35
2023-05-06T18:57:40.657Z,15.31
2023-05-06T19:00:09.032Z,15.21
2023-05-06T19:02:37.882Z,15.11
2023-05-06T19:05:07.214Z,15.15
2023-05-06T19:07:35.147Z,15.10
2023-05-06T19:10:03.075Z,15.05
2023-05-06T19:12:31.266Z,15.02
2023-05-06T19:15:00.086Z,15.04
2023-05-06T19:17:28.410Z,15.02
2023-05-06T19:19:59.266Z,15.00
2023-05-06T19:22:27.264Z,14.98
2023-05-06T19:24:55.250Z,14.94
2023-05-06T19:27:24.634Z,14.90
2023-05-06T19:29:52.541Z,14.87
2023-05-06T19:32:21.079Z,14.84
2023-05-06T19:34:49.001Z,14.83
2023-05-06T19:37:17.220Z,14.79
2023-05-06T19:39:46.448Z,14.76
2023-05-06T19:42:15.393Z,14.74
2023-05-06T19:44:43.573Z,14.72
2023-05-06T19:47:12.688Z,14.76
2023-05-06T19:49:40.662Z,14.72
2023-05-06T19:52:08.579Z,14.67
2023-05-06T19:54:36.723Z,14.67
2023-05-06T19:57:04.696Z,14.67
2023-05-06T19:59:32.652Z,14.70
2023-05-06T20:02:02.168Z,14.72
2023-05-06T20:04:30.234Z,14.69
2023-05-06T20:06:59.491Z,14.69
2023-05-06T20:09:27.394Z,14.70
2023-05-06T20:11:56.951Z,14.73
2023-05-06T20:14:25.187Z,14.74
2023-05-06T20:16:53.192Z,14.74
2023-05-06T20:19:29.234Z,14.76
2023-05-06T20:21:58.217Z,14.74
2023-05-06T20:24:29.285Z,14.73
2023-05-06T20:27:00.188Z,14.73
2023-05-06T20:29:28.130Z,14.72
2023-05-06T20:31:57.477Z,14.72
2023-05-06T20:34:27.087Z,14.70
2023-05-06T20:36:56.496Z,14.72
2023-05-06T20:39:28.994Z,14.72
2023-05-06T20:41:58.380Z,14.70
2023-05-06T20:44:27.172Z,14.72
2023-05-06T20:46:55.651Z,14.70
2023-05-06T20:49:23.540Z,14.65
2023-05-06T20:51:52.543Z,14.67
2023-05-06T20:54:21.526Z,14.67
2023-05-06T20:56:49.544Z,14.72
2023-05-06T20:59:17.520Z,14.70
2023-05-06T21:01:45.746Z,14.70
2023-05-06T21:04:14.287Z,14.66
2023-05-06T21:06:42.438Z,14.63
2023-05-06T21:09:10.442Z,14.63
2023-05-06T21:11:38.620Z,14.60
2023-05-06T21:14:06.852Z,14.52
2023-05-06T21:16:37.235Z,14.52
2023-05-06T21:19:05.906Z,14.47
2023-05-06T21:21:34.941Z,14.42
2023-05-06T21:24:04.988Z,14.39
2023-05-06T21:26:33.841Z,14.39
2023-05-06T21:29:01.807Z,14.35
2023-05-06T21:31:30.352Z,14.32
2023-05-06T21:33:59.227Z,14.28
2023-05-06T21:36:28.497Z,14.26
2023-05-06T21:39:06.738Z,14.25
2023-05-06T21:41:38.463Z,14.21
2023-05-06T21:44:08.077Z,14.22
2023-05-06T21:46:39.111Z,14.18
2023-05-06T21:49:07.537Z,14.19
2023-05-06T21:51:36.265Z,14.19
2023-05-06T21:54:04.149Z,14.18
2023-05-06T21:56:32.476Z,14.19
2023-05-06T21:59:00.408Z,14.18
2023-05-06T22:01:29.128Z,14.21
2023-05-06T22:03:57.392Z,14.17
2023-05-06T22:06:25.361Z,14.17
2023-05-06T22:08:53.347Z,14.17
2023-05-06T22:11:22.665Z,14.14
2023-05-06T22:13:50.708Z,14.14
2023-05-06T22:16:18.537Z,14.15
2023-05-06T22:18:46.570Z,14.14
2023-05-06T22:21:14.386Z,14.14
2023-05-06T22:23:42.247Z,14.12
2023-05-06T22:26:09.984Z,14.12
2023-05-06T22:28:37.719Z,14.15
2023-05-06T22:31:05.809Z,14.14
2023-05-06T22:33:33.725Z,14.15
2023-05-06T22:36:01.583Z,14.12
2023-05-06T22:38:29.358Z,14.14
2023-05-06T22:40:57.176Z,14.17
2023-05-06T22:43:24.951Z,14.18
2023-05-06T22:45:52.732Z,14.17
2023-05-06T22:48:22.054Z,14.17
2023-05-06T22:50:49.995Z,14.19
2023-05-06T22:53:17.763Z,14.21
2023-05-06T22:55:45.783Z,14.21
2023-05-06T22:58:13.571Z,14.19
2023-05-06T23:00:43.115Z,14.21
2023-05-06T23:03:10.975Z,14.19
2023-05-06T23:05:38.790Z,14.24
2023-05-06T23:08:06.642Z,14.22
2023-05-06T23:10:34.727Z,14.21
2023-05-06T23:13:03.208Z,14.21
2023-05-06T23:15:31.197Z,14.21
2023-05-06T23:17:59.261Z,14.24
2023-05-06T23:20:27.151Z,14.21
2023-05-06T23:22:54.896Z,14.22
2023-05-06T23:25:22.771Z,14.21
2023-05-06T23:27:50.712Z,14.24
2023-05-06T23:30:18.494Z,14.22
2023-05-06T23:32:46.514Z,14.26
2023-05-06T23:35:14.364Z,14.21
2023-05-06T23:37:42.225Z,14.21
2023-05-06T23:40:12.634Z,14.17
2023-05-06T23:42:41.488Z,14.17
2023-05-06T23:45:10.072Z,14.15
2023-05-06T23:47:38.180Z,14.18
2023-05-06T23:50:06.887Z,14.15
2023-05-06T23:52:37.257Z,14.15
2023-05-06T23:55:08.182Z,14.15
2023-05-06T23:57:36.301Z,14.22
